createdAt,value
2023-02-11T00:01:37.140Z,11.00
2023-02-11T00:06:40.332Z,8.90
2023-02-11T00:11:44.900Z,9.52
2023-02-11T00:16:48.134Z,9.40
2023-02-11T00:21:51.273Z,8.15
2023-02-11T00:26:55.730Z,8.27
2023-02-11T00:32:05.188Z,7.65
2023-02-11T00:37:08.262Z,7.95
2023-02-11T00:42:15.262Z,8.18
2023-02-11T00:47:18.360Z,8.57
2023-02-11T00:52:21.428Z,8.13
2023-02-11T00:57:25.884Z,8.88
2023-02-11T01:02:28.956Z,7.95
2023-02-11T01:07:32.041Z,8.23
2023-02-11T01:12:36.691Z,7.60
2023-02-11T01:17:39.823Z,8.23
2023-02-11T01:22:42.943Z,7.43
2023-02-11T01:27:47.503Z,7.65
2023-02-11T01:32:50.564Z,6.82
2023-02-11T01:37:53.639Z,8.00
2023-02-11T01:42:58.040Z,8.00
2023-02-11T01:48:03.520Z,7.85
2023-02-11T01:53:20.628Z,6.88
2023-02-11T01:58:25.251Z,7.55
2023-02-11T02:03:29.061Z,7.20
2023-02-11T02:08:36.079Z,8.40
2023-02-11T02:13:40.768Z,7.07
2023-02-11T02:18:48.849Z,7.60
2023-02-11T02:24:12.584Z,7.03
2023-02-11T02:29:32.278Z,7.97
2023-02-11T02:34:41.660Z,6.95
2023-02-11T02:39:46.793Z,8.07
2023-02-11T02:44:50.397Z,7.65
2023-02-11T02:49:54.837Z,7.05
2023-02-11T02:55:15.885Z,6.90
2023-02-11T03:00:23.687Z,6.75
2023-02-11T03:05:31.977Z,7.60
2023-02-11T03:10:36.572Z,7.80
2023-02-11T03:15:42.461Z,8.52
2023-02-11T03:20:49.779Z,7.50
2023-02-11T03:25:57.295Z,7.80
2023-02-11T03:31:06.311Z,8.35
2023-02-11T03:36:15.197Z,9.38
2023-02-11T03:41:21.258Z,7.95
2023-02-11T03:46:25.520Z,8.02
2023-02-11T03:51:30.322Z,7.95
2023-02-11T03:56:36.501Z,9.13
2023-02-11T04:01:39.615Z,8.95
2023-02-11T04:06:44.401Z,9.57
2023-02-11T04:11:47.470Z,9.68
2023-02-11T04:16:50.661Z,10.32
2023-02-11T04:21:55.118Z,9.55
2023-02-11T04:26:58.341Z,10.15
2023-02-11T04:32:01.513Z,10.00
2023-02-11T04:37:06.064Z,10.07
2023-02-11T04:42:09.148Z,10.20
2023-02-11T04:47:13.433Z,10.98
2023-02-11T04:52:17.910Z,10.70
2023-02-11T04:57:20.974Z,11.15
2023-02-11T05:02:24.089Z,11.02
2023-02-11T05:07:28.579Z,11.15
2023-02-11T05:12:31.680Z,10.73
2023-02-11T05:17:34.778Z,11.85
2023-02-11T05:22:39.321Z,12.70
2023-02-11T05:27:42.483Z,11.88
2023-02-11T05:32:45.568Z,12.25
2023-02-11T05:37:50.008Z,13.38
2023-02-11T05:42:53.041Z,13.77
2023-02-11T05:47:56.175Z,12.70
2023-02-11T05:53:00.605Z,14.23
2023-02-11T05:58:03.859Z,14.38
2023-02-11T06:03:07.088Z,15.80
2023-02-11T06:08:11.730Z,14.65
2023-02-11T06:13:14.811Z,15.00
2023-02-11T06:18:17.880Z,15.32
2023-02-11T06:23:22.710Z,15.05
2023-02-11T06:28:25.961Z,15.18
2023-02-11T06:33:29.083Z,16.55
2023-02-11T06:38:33.534Z,16.95
2023-02-11T06:43:36.631Z,17.42
2023-02-11T06:48:39.689Z,16.85
2023-02-11T06:53:45.261Z,18.85
2023-02-11T06:58:48.731Z,18.85
2023-02-11T07:03:51.931Z,19.67
2023-02-11T07:08:56.538Z,20.17
2023-02-11T07:14:01.676Z,19.50
2023-02-11T07:19:04.805Z,17.95
2023-02-11T07:24:11.229Z,19.80
2023-02-11T07:29:14.481Z,21.48
2023-02-11T07:34:17.612Z,21.05
2023-02-11T07:39:22.641Z,21.85
2023-02-11T07:44:25.764Z,22.08
2023-02-11T07:49:29.043Z,22.08
2023-02-11T07:54:33.603Z,22.60
2023-02-11T07:59:37.024Z,23.20
2023-02-11T08:04:40.284Z,25.55
2023-02-11T08:09:44.907Z,26.95
2023-02-11T08:14:48.166Z,26.17
2023-02-11T08:19:51.787Z,26.33
2023-02-11T08:24:58.455Z,24.65
2023-02-11T08:30:02.060Z,25.77
2023-02-11T08:35:05.520Z,26.58
2023-02-11T08:40:10.632Z,26.58
2023-02-11T08:45:13.950Z,26.80
2023-02-11T08:50:17.147Z,27.17
2023-02-11T08:55:21.935Z,29.67
2023-02-11T09:00:25.558Z,30.15
2023-02-11T09:05:28.793Z,30.35
2023-02-11T09:10:33.440Z,30.15
2023-02-11T09:15:37.181Z,31.40
2023-02-11T09:20:40.444Z,31.98
2023-02-11T09:25:45.160Z,30.75
2023-02-11T09:30:48.741Z,32.30
2023-02-11T09:35:52.061Z,32.13
2023-02-11T09:40:56.868Z,32.30
2023-02-11T09:46:00.487Z,33.13
2023-02-11T09:51:05.058Z,32.15
2023-02-11T09:56:13.471Z,32.60
2023-02-11T10:01:22.839Z,31.05
2023-02-11T10:06:34.611Z,33.08
2023-02-11T10:11:43.042Z,30.85
2023-02-11T10:16:53.413Z,32.92
2023-02-11T10:22:00.854Z,25.00
2023-02-11T10:27:08.454Z,33.10
2023-02-11T10:32:16.885Z,32.28
2023-02-11T10:37:20.126Z,31.75
2023-02-11T10:42:26.203Z,31.48
2023-02-11T10:47:32.945Z,31.73
2023-02-11T10:52:36.219Z,31.08
2023-02-11T10:57:44.847Z,30.02
2023-02-11T11:02:53.480Z,30.92
2023-02-11T11:07:57.923Z,30.08
2023-02-11T11:13:02.791Z,30.25
2023-02-11T11:18:21.967Z,28.50
2023-02-11T11:23:25.777Z,29.20
2023-02-11T11:28:30.986Z,25.80
2023-02-11T11:33:35.614Z,27.10
2023-02-11T11:38:39.808Z,24.52
2023-02-11T11:43:55.017Z,23.50
2023-02-11T11:49:01.752Z,23.50
2023-02-11T11:54:07.537Z,21.20
2023-02-11T11:59:15.430Z,21.88
2023-02-11T12:04:28.481Z,21.60
2023-02-11T12:09:37.322Z,21.42
2023-02-11T12:14:46.456Z,18.30
2023-02-11T12:20:23.737Z,18.02
2023-02-11T12:25:28.442Z,18.15
2023-02-11T12:30:47.727Z,16.67
2023-02-11T12:35:57.023Z,16.85
2023-02-11T12:41:10.902Z,15.05
2023-02-11T12:46:32.595Z,15.32
2023-02-11T12:51:40.986Z,14.70
2023-02-11T12:56:47.707Z,13.98
2023-02-11T13:01:53.324Z,14.63
2023-02-11T13:06:58.551Z,13.77
2023-02-11T13:12:24.046Z,13.73
2023-02-11T13:17:31.393Z,13.50
2023-02-11T13:22:39.876Z,14.45
2023-02-11T13:27:45.411Z,13.23
2023-02-11T13:33:07.737Z,13.68
2023-02-11T13:38:19.612Z,14.23
2023-02-11T13:43:23.517Z,13.48
2023-02-11T13:48:30.599Z,14.93
2023-02-11T13:53:45.374Z,14.43
2023-02-11T13:58:49.311Z,13.95
2023-02-11T14:04:25.208Z,14.25
2023-02-11T14:09:38.064Z,14.02
2023-02-11T14:14:56.271Z,14.00
2023-02-11T14:20:00.449Z,14.43
2023-02-11T14:25:15.392Z,14.75
2023-02-11T14:30:31.598Z,13.10
2023-02-11T14:35:37.726Z,13.15
2023-02-11T14:40:47.144Z,13.13
2023-02-11T14:45:52.437Z,13.18
2023-02-11T14:50:59.384Z,12.98
2023-02-11T14:56:04.023Z,12.27
2023-02-11T15:01:09.563Z,13.70
2023-02-11T15:06:17.594Z,19.58
2023-02-11T15:11:23.674Z,12.13
2023-02-11T15:16:28.579Z,11.23
2023-02-11T15:21:32.436Z,11.93
2023-02-11T15:26:37.013Z,11.77
2023-02-11T15:31:40.323Z,10.25
2023-02-11T15:36:43.758Z,10.35
2023-02-11T15:41:48.684Z,10.32
2023-02-11T15:46:52.162Z,9.50
2023-02-11T15:51:57.109Z,10.40
2023-02-11T15:57:03.666Z,15.50
2023-02-11T16:02:08.424Z,10.93
2023-02-11T16:07:36.243Z,10.07
2023-02-11T16:12:41.001Z,9.05
2023-02-11T16:17:45.211Z,9.35
2023-02-11T16:22:48.458Z,8.88
2023-02-11T16:27:54.166Z,7.88
2023-02-11T16:32:57.520Z,8.35
2023-02-11T16:38:00.834Z,10.48
2023-02-11T16:43:05.761Z,9.32
2023-02-11T16:48:09.741Z,8.45
2023-02-11T16:53:13.350Z,10.00
2023-02-11T16:58:18.356Z,8.57
2023-02-11T17:03:28.108Z,21.52
2023-02-11T17:08:32.936Z,9.80
2023-02-11T17:13:39.477Z,8.80
2023-02-11T17:18:42.653Z,10.38
2023-02-11T17:23:46.860Z,9.23
2023-02-11T17:28:51.581Z,8.65
2023-02-11T17:33:54.928Z,9.18
2023-02-11T17:38:59.033Z,8.73
2023-02-11T17:44:03.591Z,8.80
2023-02-11T17:49:06.750Z,10.27
2023-02-11T17:54:11.946Z,9.50
2023-02-11T17:59:16.410Z,10.13
2023-02-11T18:04:20.603Z,9.25
2023-02-11T18:09:23.846Z,8.57
2023-02-11T18:14:28.466Z,8.63
2023-02-11T18:19:33.237Z,10.48
2023-02-11T18:24:36.572Z,9.20
2023-02-11T18:29:41.346Z,10.15
2023-02-11T18:34:44.808Z,9.70
2023-02-11T18:39:48.058Z,8.82
2023-02-11T18:44:52.834Z,10.93
2023-02-11T18:49:55.997Z,10.23
2023-02-11T18:54:59.392Z,10.77
2023-02-11T19:00:04.070Z,12.20
2023-02-11T19:05:07.844Z,11.75
2023-02-11T19:10:13.120Z,15.90
2023-02-11T19:15:18.086Z,16.20
2023-02-11T19:20:22.482Z,19.13
2023-02-11T19:25:25.692Z,15.90
2023-02-11T19:30:30.733Z,16.70
2023-02-11T19:35:35.868Z,14.43
2023-02-11T19:40:39.469Z,14.50
2023-02-11T19:45:44.366Z,13.27
2023-02-11T19:50:47.618Z,13.25
2023-02-11T19:55:51.307Z,13.63
2023-02-11T20:00:55.974Z,13.90
2023-02-11T20:05:59.289Z,12.75
2023-02-11T20:11:06.443Z,11.85
2023-02-11T20:16:12.653Z,12.88
2023-02-11T20:21:17.099Z,12.88
2023-02-11T20:26:21.398Z,12.93
2023-02-11T20:31:26.275Z,10.77
2023-02-11T20:36:32.326Z,12.90
2023-02-11T20:41:39.297Z,23.60
2023-02-11T20:46:45.999Z,13.75
2023-02-11T20:51:49.591Z,13.27
2023-02-11T20:56:54.028Z,11.50
2023-02-11T21:01:59.197Z,12.25
2023-02-11T21:07:03.101Z,13.15
2023-02-11T21:12:08.052Z,10.45
2023-02-11T21:17:13.301Z,14.00
2023-02-11T21:22:16.428Z,13.93
2023-02-11T21:27:19.792Z,14.85
2023-02-11T21:32:24.748Z,13.43
2023-02-11T21:37:27.874Z,11.88
2023-02-11T21:42:31.176Z,11.48
2023-02-11T21:47:35.861Z,12.75
2023-02-11T21:52:39.462Z,11.77
2023-02-11T21:57:42.639Z,10.82
2023-02-11T22:02:49.783Z,11.60
2023-02-11T22:07:53.308Z,12.00
2023-02-11T22:12:56.662Z,12.73
2023-02-11T22:18:01.251Z,12.38
2023-02-11T22:23:04.461Z,13.18
2023-02-11T22:28:07.791Z,12.05
2023-02-11T22:33:12.439Z,10.48
2023-02-11T22:38:15.526Z,13.75
2023-02-11T22:43:18.706Z,11.93
2023-02-11T22:48:23.339Z,11.35
2023-02-11T22:53:26.543Z,11.55
2023-02-11T22:58:29.685Z,12.88
2023-02-11T23:03:34.189Z,32.72
2023-02-11T23:08:38.680Z,15.30
2023-02-11T23:13:42.528Z,13.98
2023-02-11T23:18:47.746Z,14.52
2023-02-11T23:23:54.749Z,13.43
2023-02-11T23:28:58.930Z,15.25
2023-02-11T23:34:03.396Z,14.70
2023-02-11T23:39:06.873Z,13.55
2023-02-11T23:44:11.134Z,15.25
2023-02-11T23:49:16.047Z,14.45
2023-02-11T23:54:19.268Z,16.52
2023-02-11T23:59:22.393Z,14.25
